Time;durP1;ratioP1;P1;durP2;ratioP2;P2;SDS_P1;SDS_P2;PMS_P1;PMS_P2;Temp;Humidity;BMP_temperature;BMP_pressure;BME280_temperature;BME280_humidity;BME280_pressure;Samples;Min_cycle;Max_cycle;Signal;HPM_P1;HPM_P2
2022/04/10 05:57:08;;;;;;;12.63;7.63;;;;;;;;;;5068247;28;20392;-66
2022/04/10 05:59:34;;;;;;;11.13;7.75;;;;;;;;;;5067874;28;20020;-64
2022/04/10 06:02:00;;;;;;;12.23;8.43;;;;;;;;;;5068335;28;20021;-62
2022/04/10 06:04:27;;;;;;;11.32;7.50;;;;;;;;;;5068239;28;20029;-67
2022/04/10 06:06:53;;;;;;;11.88;7.35;;;;;;;;;;5068014;28;20139;-62
2022/04/10 06:09:19;;;;;;;10.02;7.47;;;;;;;;;;5066810;28;20039;-62
2022/04/10 06:11:45;;;;;;;11.38;7.60;;;;;;;;;;5068142;28;20029;-63
2022/04/10 06:14:11;;;;;;;11.48;7.88;;;;;;;;;;5061824;28;20052;-64
2022/04/10 06:16:37;;;;;;;11.52;8.60;;;;;;;;;;5047816;28;20079;-67
2022/04/10 06:19:03;;;;;;;11.15;8.45;;;;;;;;;;5060080;28;20028;-62
2022/04/10 06:21:29;;;;;;;11.75;8.68;;;;;;;;;;5067802;28;20024;-67
2022/04/10 06:23:55;;;;;;;11.90;8.65;;;;;;;;;;5067973;28;20077;-69
2022/04/10 06:26:21;;;;;;;13.73;8.63;;;;;;;;;;5067541;28;20472;-64
2022/04/10 06:28:47;;;;;;;14.77;8.77;;;;;;;;;;5067349;28;20112;-62
2022/04/10 06:31:13;;;;;;;11.20;8.63;;;;;;;;;;5066741;28;20075;-62
2022/04/10 06:33:40;;;;;;;10.82;8.70;;;;;;;;;;5064918;28;20041;-61
2022/04/10 06:36:06;;;;;;;10.52;7.82;;;;;;;;;;5067448;28;20044;-61
2022/04/10 06:38:32;;;;;;;10.50;7.75;;;;;;;;;;5067516;28;20028;-65
2022/04/10 06:40:58;;;;;;;10.52;7.32;;;;;;;;;;5067166;28;20036;-61
2022/04/10 06:43:24;;;;;;;11.05;8.00;;;;;;;;;;5067311;28;20025;-64
2022/04/10 06:45:50;;;;;;;11.10;7.10;;;;;;;;;;5067323;28;20052;-62
2022/04/10 06:48:16;;;;;;;12.60;7.38;;;;;;;;;;5067457;28;20021;-62
2022/04/10 06:50:43;;;;;;;10.10;7.35;;;;;;;;;;5066462;28;20017;-64
2022/04/10 06:53:09;;;;;;;10.13;7.47;;;;;;;;;;5057686;28;20032;-61
2022/04/10 06:55:36;;;;;;;9.75;6.65;;;;;;;;;;5054012;28;20575;-62
2022/04/10 06:58:02;;;;;;;9.35;6.25;;;;;;;;;;5046939;28;20500;-64
2022/04/10 07:00:28;;;;;;;8.32;6.47;;;;;;;;;;5046716;28;20496;-60
2022/04/10 07:02:54;;;;;;;8.57;6.97;;;;;;;;;;5047031;28;20477;-62
2022/04/10 07:05:20;;;;;;;8.00;6.28;;;;;;;;;;5061583;28;20534;-62
2022/04/10 07:07:46;;;;;;;9.13;6.65;;;;;;;;;;5056819;28;20025;-62
2022/04/10 07:10:12;;;;;;;10.20;7.70;;;;;;;;;;5053363;28;20017;-61
2022/04/10 07:12:38;;;;;;;10.70;8.05;;;;;;;;;;5053420;28;20032;-63
2022/04/10 07:15:04;;;;;;;10.70;7.60;;;;;;;;;;5042822;28;20084;-62
2022/04/10 07:17:30;;;;;;;11.73;7.22;;;;;;;;;;5047457;28;20032;-63
2022/04/10 07:19:56;;;;;;;10.20;7.57;;;;;;;;;;5053247;28;20017;-62
2022/04/10 07:25:08;;;;;;;10.02;6.90;;;;;;;;;;5053323;28;20123;-62
2022/04/10 07:27:34;;;;;;;9.20;7.15;;;;;;;;;;5052955;28;20064;-62
2022/04/10 07:30:01;;;;;;;9.20;6.75;;;;;;;;;;5053296;28;20828;-62
2022/04/10 07:32:27;;;;;;;10.07;7.35;;;;;;;;;;5053227;28;20028;-62
2022/04/10 07:34:53;;;;;;;12.60;7.78;;;;;;;;;;5053265;28;20044;-62
2022/04/10 07:37:19;;;;;;;11.02;7.63;;;;;;;;;;5053335;28;20150;-62
2022/04/10 07:39:45;;;;;;;10.63;7.18;;;;;;;;;;5053013;28;20029;-61
2022/04/10 07:42:11;;;;;;;8.93;7.00;;;;;;;;;;5053094;28;20086;-64
2022/04/10 07:44:37;;;;;;;9.27;6.93;;;;;;;;;;5052866;28;20021;-63
2022/04/10 07:49:48;;;;;;;7.88;6.75;;;;;;;;;;5053093;28;20087;-61
2022/04/10 07:52:15;;;;;;;10.10;6.93;;;;;;;;;;5052681;28;20096;-62
2022/04/10 07:54:41;;;;;;;7.78;6.50;;;;;;;;;;5052474;28;20066;-63
2022/04/10 07:57:07;;;;;;;7.43;6.22;;;;;;;;;;5052240;28;20040;-63
2022/04/10 07:59:33;;;;;;;9.35;6.35;;;;;;;;;;5051675;28;20040;-63
2022/04/10 08:01:59;;;;;;;9.45;6.30;;;;;;;;;;5052046;28;20025;-63
2022/04/10 08:04:25;;;;;;;7.63;6.20;;;;;;;;;;5052807;28;20411;-63
2022/04/10 08:06:52;;;;;;;10.38;6.25;;;;;;;;;;5052539;28;20025;-65
2022/04/10 08:09:18;;;;;;;7.80;5.95;;;;;;;;;;5052052;28;20037;-62
2022/04/10 08:11:44;;;;;;;10.48;5.88;;;;;;;;;;5051942;28;20025;-61
2022/04/10 08:14:10;;;;;;;6.72;5.05;;;;;;;;;;5050466;28;20102;-63
2022/04/10 08:16:36;;;;;;;7.45;5.53;;;;;;;;;;5051922;28;20044;-62
2022/04/10 08:19:02;;;;;;;7.40;5.07;;;;;;;;;;5042938;28;20029;-63
2022/04/10 08:21:29;;;;;;;9.20;5.35;;;;;;;;;;5040520;28;20047;-65
2022/04/10 08:23:55;;;;;;;6.70;4.88;;;;;;;;;;5041093;28;20024;-61
2022/04/10 08:26:21;;;;;;;6.93;4.57;;;;;;;;;;5038022;28;20151;-64
2022/04/10 08:28:47;;;;;;;6.82;4.68;;;;;;;;;;5040895;28;20021;-63
2022/04/10 08:31:13;;;;;;;5.78;4.65;;;;;;;;;;5039623;28;20023;-63
2022/04/10 08:33:39;;;;;;;6.80;4.43;;;;;;;;;;5041456;28;20028;-63
2022/04/10 08:36:05;;;;;;;8.25;5.18;;;;;;;;;;5040160;28;20400;-65
2022/04/10 08:38:31;;;;;;;5.70;4.60;;;;;;;;;;5039694;28;20074;-62
2022/04/10 08:41:00;;;;;;;5.57;4.38;;;;;;;;;;5041598;28;20025;-63
2022/04/10 08:43:26;;;;;;;6.28;4.50;;;;;;;;;;5039274;28;20049;-63
2022/04/10 08:45:52;;;;;;;5.88;4.53;;;;;;;;;;5041297;28;20416;-64
2022/04/10 08:48:18;;;;;;;6.20;4.60;;;;;;;;;;5039069;28;20384;-63
2022/04/10 08:50:45;;;;;;;6.38;4.68;;;;;;;;;;5048496;28;20110;-64
2022/04/10 08:53:11;;;;;;;6.68;4.90;;;;;;;;;;5051327;28;20028;-64
2022/04/10 08:55:37;;;;;;;7.53;4.97;;;;;;;;;;5051282;28;20416;-61
2022/04/10 08:58:04;;;;;;;5.88;4.80;;;;;;;;;;5051446;28;20098;-65
2022/04/10 09:00:30;;;;;;;8.07;5.38;;;;;;;;;;5051422;28;20025;-63
2022/04/10 09:02:56;;;;;;;6.53;5.13;;;;;;;;;;5051492;28;20020;-63
2022/04/10 09:05:23;;;;;;;5.97;4.75;;;;;;;;;;5051202;28;20104;-65
2022/04/10 09:08:08;;;;;;;6.72;5.10;;;;;;;;;;5051034;28;20032;-63
2022/04/10 09:10:53;;;;;;;6.90;5.75;;;;;;;;;;5051110;28;20025;-66
2022/04/10 09:13:34;;;;;;;9.25;5.90;;;;;;;;;;5041150;28;20464;-66
2022/04/10 09:16:07;;;;;;;6.25;4.70;;;;;;;;;;5051220;28;20111;-61
2022/04/10 09:18:50;;;;;;;9.55;6.40;;;;;;;;;;5051246;28;20131;-61
2022/04/10 09:21:17;;;;;;;9.43;6.45;;;;;;;;;;5049686;28;20036;-62
2022/04/10 09:23:46;;;;;;;12.98;7.43;;;;;;;;;;5031280;28;20091;-66
2022/04/10 09:26:13;;;;;;;10.13;7.05;;;;;;;;;;5031228;28;20115;-63
2022/04/10 09:28:41;;;;;;;9.27;7.00;;;;;;;;;;5030642;28;20108;-62
2022/04/10 09:31:26;;;;;;;10.55;7.32;;;;;;;;;;5030814;28;20067;-62
2022/04/10 09:33:52;;;;;;;11.07;7.35;;;;;;;;;;5030608;28;20029;-61
2022/04/10 09:36:30;;;;;;;9.70;7.72;;;;;;;;;;5030600;28;20543;-63
2022/04/10 09:38:56;;;;;;;10.25;7.63;;;;;;;;;;5030625;28;20108;-61
2022/04/10 09:41:22;;;;;;;10.63;8.15;;;;;;;;;;5030659;28;20451;-65
2022/04/10 09:43:48;;;;;;;12.13;7.93;;;;;;;;;;5030607;28;20116;-63
2022/04/10 09:46:14;;;;;;;11.32;8.05;;;;;;;;;;5030989;28;20029;-64
2022/04/10 09:48:40;;;;;;;14.05;9.02;;;;;;;;;;5030969;28;20108;-65
2022/04/10 09:51:06;;;;;;;13.18;8.55;;;;;;;;;;5030991;28;20025;-63
2022/04/10 09:53:33;;;;;;;10.48;8.35;;;;;;;;;;5030393;28;20646;-65
2022/04/10 09:56:02;;;;;;;15.70;9.13;;;;;;;;;;5030620;28;20057;-62
2022/04/10 09:58:28;;;;;;;10.50;8.20;;;;;;;;;;5033398;28;20028;-64
2022/04/10 10:00:55;;;;;;;13.65;8.25;;;;;;;;;;5040917;28;20033;-66
2022/04/10 10:03:21;;;;;;;12.75;9.00;;;;;;;;;;5039780;28;20020;-63
2022/04/10 10:05:49;;;;;;;11.80;8.52;;;;;;;;;;5040554;28;20044;-64
2022/04/10 10:08:17;;;;;;;31.02;16.90;;;;;;;;;;5041044;28;20124;-63
2022/04/10 10:10:44;;;;;;;19.92;13.50;;;;;;;;;;5039469;28;20128;-65
2022/04/10 10:13:12;;;;;;;13.50;8.80;;;;;;;;;;5039660;28;20533;-62
2022/04/10 10:15:38;;;;;;;15.65;10.30;;;;;;;;;;5040973;28;20404;-65
2022/04/10 10:18:05;;;;;;;18.65;12.32;;;;;;;;;;5039552;28;20021;-66
2022/04/10 10:20:32;;;;;;;14.35;9.15;;;;;;;;;;5040236;28;20096;-66
2022/04/10 10:23:00;;;;;;;12.82;9.45;;;;;;;;;;5033683;28;20036;-66
2022/04/10 10:25:45;;;;;;;11.82;8.15;;;;;;;;;;5039932;28;20078;-65
2022/04/10 10:28:30;;;;;;;13.38;8.43;;;;;;;;;;5041451;28;20044;-66
2022/04/10 10:31:11;;;;;;;14.55;8.70;;;;;;;;;;5040868;28;20033;-65
2022/04/10 10:33:38;;;;;;;14.35;8.55;;;;;;;;;;5037856;28;20021;-66
2022/04/10 10:36:07;;;;;;;12.65;7.88;;;;;;;;;;5038740;28;20112;-67
2022/04/10 10:38:34;;;;;;;9.20;6.95;;;;;;;;;;5039499;28;20016;-65
2022/04/10 10:41:12;;;;;;;17.23;9.82;;;;;;;;;;5041061;28;20058;-67
2022/04/10 10:43:38;;;;;;;13.02;7.80;;;;;;;;;;5043028;28;20033;-65
2022/04/10 10:46:23;;;;;;;10.77;7.40;;;;;;;;;;5041489;28;20119;-64
2022/04/10 10:49:10;;;;;;;12.63;7.30;;;;;;;;;;5042327;28;20085;-66
2022/04/10 10:51:36;;;;;;;11.43;7.18;;;;;;;;;;5042618;28;20036;-64
2022/04/10 10:54:08;;;;;;;10.07;7.22;;;;;;;;;;5049784;28;20052;-64
2022/04/10 10:56:37;;;;;;;11.38;6.93;;;;;;;;;;5040475;28;20053;-63
2022/04/10 10:59:23;;;;;;;10.40;7.00;;;;;;;;;;5040899;28;20033;-65
2022/04/10 11:02:08;;;;;;;11.32;5.72;;;;;;;;;;5041315;28;20090;-68
2022/04/10 11:04:39;;;;;;;7.10;5.25;;;;;;;;;;5049367;28;20036;-71
2022/04/10 11:07:21;;;;;;;8.57;4.80;;;;;;;;;;5046222;28;20422;-67
2022/04/10 11:09:53;;;;;;;9.15;6.32;;;;;;;;;;5042307;28;20064;-67
2022/04/10 11:12:22;;;;;;;11.18;6.28;;;;;;;;;;5036095;28;20034;-70
2022/04/10 11:14:50;;;;;;;11.15;6.95;;;;;;;;;;5043330;28;20119;-67
2022/04/10 11:17:16;;;;;;;10.65;7.50;;;;;;;;;;5052537;28;20041;-63
2022/04/10 11:19:47;;;;;;;8.57;6.43;;;;;;;;;;5052922;28;20040;-71
2022/04/10 11:22:16;;;;;;;10.80;6.22;;;;;;;;;;5053318;28;20020;-65
2022/04/10 11:24:43;;;;;;;11.02;6.90;;;;;;;;;;5053166;28;20025;-69
2022/04/10 11:27:13;;;;;;;10.15;6.78;;;;;;;;;;5053243;28;20047;-69
2022/04/10 11:29:51;;;;;;;9.45;5.95;;;;;;;;;;5052848;28;20029;-67
2022/04/10 11:32:18;;;;;;;6.93;5.03;;;;;;;;;;5052832;28;20027;-68
2022/04/10 11:34:44;;;;;;;8.38;5.15;;;;;;;;;;5051344;28;20060;-69
2022/04/10 11:37:21;;;;;;;6.63;4.88;;;;;;;;;;5052913;28;20033;-64
2022/04/10 11:39:50;;;;;;;7.88;4.90;;;;;;;;;;5052413;28;20056;-65
2022/04/10 11:42:16;;;;;;;6.85;4.65;;;;;;;;;;5052455;28;20061;-64
2022/04/10 11:44:42;;;;;;;6.05;4.03;;;;;;;;;;5052246;28;20021;-67
2022/04/10 11:47:11;;;;;;;6.60;3.80;;;;;;;;;;5052242;28;20478;-66
2022/04/10 11:49:38;;;;;;;6.18;3.70;;;;;;;;;;5052553;28;20013;-67
2022/04/10 11:52:05;;;;;;;7.60;4.40;;;;;;;;;;5052377;28;20035;-66
2022/04/10 11:54:36;;;;;;;5.32;3.60;;;;;;;;;;5052343;28;20047;-67
2022/04/10 11:57:09;;;;;;;7.53;4.50;;;;;;;;;;5051312;28;20118;-66
2022/04/10 11:59:39;;;;;;;6.30;3.47;;;;;;;;;;5052275;28;20029;-65
2022/04/10 12:02:07;;;;;;;5.88;3.30;;;;;;;;;;5052375;28;20037;-70
2022/04/10 12:04:36;;;;;;;6.13;3.92;;;;;;;;;;5052435;28;20637;-68
2022/04/10 12:07:12;;;;;;;6.85;4.28;;;;;;;;;;5052193;28;20595;-64
2022/04/10 12:09:38;;;;;;;6.95;4.20;;;;;;;;;;5051566;28;20094;-65
2022/04/10 12:12:05;;;;;;;6.95;3.85;;;;;;;;;;5052308;28;20024;-68
2022/04/10 12:14:31;;;;;;;5.78;4.07;;;;;;;;;;5052157;28;20028;-65
2022/04/10 12:16:57;;;;;;;5.80;4.32;;;;;;;;;;5052043;28;20362;-65
2022/04/10 12:19:30;;;;;;;5.97;3.65;;;;;;;;;;5051619;28;20384;-65
2022/04/10 12:21:56;;;;;;;6.07;4.32;;;;;;;;;;5052259;28;20075;-67
2022/04/10 12:24:22;;;;;;;6.82;4.38;;;;;;;;;;5052004;28;20024;-65
2022/04/10 12:26:49;;;;;;;6.65;4.53;;;;;;;;;;5051950;28;20037;-65
2022/04/10 12:29:15;;;;;;;8.13;4.78;;;;;;;;;;5051824;28;20774;-66
2022/04/10 12:31:42;;;;;;;8.18;4.68;;;;;;;;;;5051477;28;20082;-66
2022/04/10 12:34:12;;;;;;;6.80;3.65;;;;;;;;;;5038653;28;20031;-68
2022/04/10 12:36:47;;;;;;;6.78;3.70;;;;;;;;;;5031718;28;20417;-64
2022/04/10 12:39:24;;;;;;;9.43;5.00;;;;;;;;;;5031287;28;20033;-64
2022/04/10 12:42:00;;;;;;;9.98;3.90;;;;;;;;;;5031455;28;20036;-68
2022/04/10 12:44:27;;;;;;;8.43;4.35;;;;;;;;;;5031911;28;20041;-64
2022/04/10 12:46:53;;;;;;;9.40;5.35;;;;;;;;;;5031178;28;20029;-66
2022/04/10 12:49:19;;;;;;;15.15;5.88;;;;;;;;;;5031702;28;20090;-65
2022/04/10 12:52:05;;;;;;;7.55;4.20;;;;;;;;;;5030941;28;20028;-68
2022/04/10 12:54:38;;;;;;;6.88;3.30;;;;;;;;;;5031028;28;20030;-65
2022/04/10 12:57:06;;;;;;;6.43;4.40;;;;;;;;;;5031368;28;20049;-63
2022/04/10 12:59:43;;;;;;;8.20;4.90;;;;;;;;;;5031386;28;20029;-64
2022/04/10 13:02:20;;;;;;;7.55;3.45;;;;;;;;;;5031244;28;20032;-66
2022/04/10 13:04:53;;;;;;;5.88;3.15;;;;;;;;;;5029176;28;20500;-67
2022/04/10 13:07:19;;;;;;;7.65;3.15;;;;;;;;;;5031145;28;20021;-63
2022/04/10 13:10:04;;;;;;;7.22;3.10;;;;;;;;;;5030579;28;20036;-65
2022/04/10 13:12:31;;;;;;;5.90;3.47;;;;;;;;;;5030681;28;20108;-62
2022/04/10 13:14:57;;;;;;;9.38;3.42;;;;;;;;;;5030797;28;20026;-65
2022/04/10 13:17:32;;;;;;;7.32;3.28;;;;;;;;;;5031013;28;20021;-65
2022/04/10 13:20:06;;;;;;;5.45;2.60;;;;;;;;;;5030465;28;20026;-63
2022/04/10 13:22:33;;;;;;;8.15;4.20;;;;;;;;;;5030781;28;20032;-65
2022/04/10 13:24:59;;;;;;;3.72;2.40;;;;;;;;;;5031094;28;20558;-65
2022/04/10 13:27:25;;;;;;;6.00;3.92;;;;;;;;;;5030749;28;20500;-64
2022/04/10 13:29:51;;;;;;;5.68;3.88;;;;;;;;;;5030439;28;20033;-68
2022/04/10 13:32:18;;;;;;;5.00;2.90;;;;;;;;;;5030835;28;20032;-69
2022/04/10 13:34:45;;;;;;;7.88;3.97;;;;;;;;;;5031221;28;20110;-65
2022/04/10 13:37:11;;;;;;;8.20;3.72;;;;;;;;;;5030979;28;20037;-65
2022/04/10 13:39:37;;;;;;;6.05;3.60;;;;;;;;;;5030672;28;20552;-67
2022/04/10 13:42:03;;;;;;;6.93;3.95;;;;;;;;;;5030575;28;20029;-66
2022/04/10 13:44:30;;;;;;;6.40;3.40;;;;;;;;;;5034438;28;20056;-66
2022/04/10 13:46:56;;;;;;;8.98;3.58;;;;;;;;;;5046435;28;20033;-69
2022/04/10 13:49:22;;;;;;;4.43;2.83;;;;;;;;;;5039329;28;20052;-65
2022/04/10 13:51:49;;;;;;;5.95;3.13;;;;;;;;;;5040093;28;20029;-66
2022/04/10 13:54:15;;;;;;;4.63;3.33;;;;;;;;;;5040796;28;20029;-66
2022/04/10 13:56:41;;;;;;;5.72;4.05;;;;;;;;;;5038977;28;20060;-65
2022/04/10 13:59:07;;;;;;;6.68;4.13;;;;;;;;;;5040514;28;20468;-65
2022/04/10 14:01:34;;;;;;;9.35;5.13;;;;;;;;;;5040974;28;20033;-65
2022/04/10 14:04:00;;;;;;;9.93;4.68;;;;;;;;;;5039609;28;20025;-65
2022/04/10 14:06:26;;;;;;;6.38;4.20;;;;;;;;;;5039016;28;20016;-66
2022/04/10 14:08:52;;;;;;;4.72;3.50;;;;;;;;;;5040906;28;20017;-65
2022/04/10 14:11:19;;;;;;;10.23;5.03;;;;;;;;;;5039256;28;20033;-61
2022/04/10 14:13:45;;;;;;;11.68;4.43;;;;;;;;;;5039085;28;20322;-60
2022/04/10 14:16:11;;;;;;;6.53;4.43;;;;;;;;;;5040877;28;20151;-60
2022/04/10 14:18:37;;;;;;;7.75;4.13;;;;;;;;;;5042864;28;20029;-60
2022/04/10 14:21:03;;;;;;;8.10;4.07;;;;;;;;;;5044115;28;20029;-60
2022/04/10 14:23:29;;;;;;;8.55;4.40;;;;;;;;;;5044874;28;20025;-61
2022/04/10 14:25:55;;;;;;;5.35;3.47;;;;;;;;;;5042714;28;20040;-60
2022/04/10 14:28:21;;;;;;;11.52;5.50;;;;;;;;;;5043812;28;20021;-64
2022/04/10 14:30:48;;;;;;;11.90;7.45;;;;;;;;;;5044349;28;20026;-60
2022/04/10 14:33:14;;;;;;;7.25;4.30;;;;;;;;;;5042532;28;20021;-61
2022/04/10 14:35:40;;;;;;;28.38;16.67;;;;;;;;;;5043633;28;20130;-60
2022/04/10 14:38:07;;;;;;;9.88;5.10;;;;;;;;;;5038018;28;20083;-63
2022/04/10 14:40:33;;;;;;;8.93;5.30;;;;;;;;;;5043416;28;20029;-60
2022/04/10 14:42:59;;;;;;;5.10;3.88;;;;;;;;;;5041767;28;20025;-60
2022/04/10 14:45:25;;;;;;;7.03;4.70;;;;;;;;;;5038325;28;20021;-60
2022/04/10 14:47:51;;;;;;;8.38;4.72;;;;;;;;;;5039397;28;20112;-60
2022/04/10 14:50:17;;;;;;;7.05;4.63;;;;;;;;;;5044338;28;20022;-60
2022/04/10 14:52:43;;;;;;;7.03;4.22;;;;;;;;;;5043870;28;20024;-61
2022/04/10 14:55:09;;;;;;;6.05;3.72;;;;;;;;;;5048295;28;20066;-64
2022/04/10 14:57:35;;;;;;;7.18;3.72;;;;;;;;;;5053689;28;20090;-60
2022/04/10 15:00:02;;;;;;;7.63;3.70;;;;;;;;;;5053100;28;20034;-64
2022/04/10 15:02:31;;;;;;;7.93;4.25;;;;;;;;;;5052927;28;20029;-71
2022/04/10 15:04:57;;;;;;;6.10;3.83;;;;;;;;;;5053516;28;20025;-61
2022/04/10 15:07:23;;;;;;;7.25;3.78;;;;;;;;;;5041253;28;20083;-61
2022/04/10 15:09:49;;;;;;;9.55;4.10;;;;;;;;;;5042817;28;20049;-68
2022/04/10 15:12:15;;;;;;;7.35;4.38;;;;;;;;;;5041571;28;20029;-63
2022/04/10 15:14:41;;;;;;;8.82;4.28;;;;;;;;;;5041667;28;20048;-63
2022/04/10 15:17:07;;;;;;;9.80;3.80;;;;;;;;;;5044217;28;20033;-71
2022/04/10 15:19:34;;;;;;;10.73;3.20;;;;;;;;;;5040371;28;20053;-65
2022/04/10 15:22:00;;;;;;;4.55;3.10;;;;;;;;;;5040393;28;20025;-62
2022/04/10 15:24:26;;;;;;;5.70;2.95;;;;;;;;;;5040002;28;20028;-66
2022/04/10 15:26:52;;;;;;;4.63;3.08;;;;;;;;;;5048151;28;20087;-63
2022/04/10 15:29:18;;;;;;;5.60;3.25;;;;;;;;;;5042062;28;20112;-62
2022/04/10 15:31:46;;;;;;;7.47;3.95;;;;;;;;;;5040498;28;20020;-65
2022/04/10 15:34:12;;;;;;;5.00;2.88;;;;;;;;;;5041068;28;20025;-66
2022/04/10 15:36:40;;;;;;;5.43;3.15;;;;;;;;;;5041377;28;20033;-63
2022/04/10 15:39:06;;;;;;;5.35;3.50;;;;;;;;;;5045804;28;20427;-68
2022/04/10 15:41:41;;;;;;;5.45;3.15;;;;;;;;;;5046411;28;20111;-60
2022/04/10 15:44:07;;;;;;;5.97;3.63;;;;;;;;;;5046166;28;20104;-61
2022/04/10 15:46:33;;;;;;;5.85;3.65;;;;;;;;;;5036308;28;20040;-61
2022/04/10 15:48:59;;;;;;;5.30;3.70;;;;;;;;;;5035084;28;20034;-61
2022/04/10 15:51:25;;;;;;;5.90;3.80;;;;;;;;;;5029277;28;20017;-62
2022/04/10 15:53:51;;;;;;;4.68;2.80;;;;;;;;;;5040118;28;20113;-62
2022/04/10 15:56:17;;;;;;;9.18;5.60;;;;;;;;;;5040588;28;20045;-66
2022/04/10 15:58:43;;;;;;;9.75;5.32;;;;;;;;;;5040946;28;20067;-68
2022/04/10 16:01:10;;;;;;;8.82;5.93;;;;;;;;;;5032929;28;20033;-66
2022/04/10 16:03:36;;;;;;;7.05;4.20;;;;;;;;;;5033850;28;20080;-64
2022/04/10 16:06:02;;;;;;;8.52;4.88;;;;;;;;;;5040785;28;20025;-67
2022/04/10 16:08:28;;;;;;;7.15;4.75;;;;;;;;;;5038890;28;20021;-65
2022/04/10 16:10:54;;;;;;;7.80;5.05;;;;;;;;;;5033662;28;20080;-61
2022/04/10 16:13:20;;;;;;;8.57;4.50;;;;;;;;;;5039643;28;20026;-63
2022/04/10 16:15:47;;;;;;;8.93;4.38;;;;;;;;;;5042195;28;20484;-64
2022/04/10 16:18:13;;;;;;;5.32;3.22;;;;;;;;;;5040824;28;20029;-67
2022/04/10 16:20:39;;;;;;;6.70;4.30;;;;;;;;;;5041737;28;20103;-61
2022/04/10 16:23:07;;;;;;;7.82;4.10;;;;;;;;;;5042709;28;20032;-66
2022/04/10 16:25:33;;;;;;;7.88;4.00;;;;;;;;;;5046446;28;20033;-67
2022/04/10 16:30:44;;;;;;;5.07;2.97;;;;;;;;;;5040095;28;20075;-68
2022/04/10 16:33:10;;;;;;;8.73;4.80;;;;;;;;;;5039136;28;20034;-65
2022/04/10 16:35:42;;;;;;;6.63;4.07;;;;;;;;;;5036884;28;20098;-66
2022/04/10 16:38:09;;;;;;;;;;;;;;;;;;5039895;28;20021;-64
2022/04/10 16:40:37;;;;;;;6.60;4.63;;;;;;;;;;5039813;28;19908;-68
2022/04/10 16:43:03;;;;;;;9.48;5.82;;;;;;;;;;5038984;28;20079;-63
2022/04/10 16:45:30;;;;;;;9.20;4.60;;;;;;;;;;5039353;28;20096;-62
2022/04/10 16:47:56;;;;;;;7.25;3.83;;;;;;;;;;5038327;28;20481;-60
2022/04/10 16:50:23;;;;;;;8.68;3.92;;;;;;;;;;5033295;28;20106;-60
2022/04/10 16:52:49;;;;;;;6.40;4.10;;;;;;;;;;5040340;28;20653;-63
2022/04/10 16:55:15;;;;;;;7.28;4.13;;;;;;;;;;5038986;28;20057;-63
2022/04/10 16:57:43;;;;;;;6.18;3.55;;;;;;;;;;5038768;28;20040;-63
2022/04/10 17:00:17;;;;;;;6.28;3.10;;;;;;;;;;5041578;28;20025;-63
2022/04/10 17:02:43;;;;;;;6.57;3.03;;;;;;;;;;5041655;28;20053;-66
2022/04/10 17:05:10;;;;;;;5.05;3.40;;;;;;;;;;5044706;28;20025;-63
2022/04/10 17:07:36;;;;;;;4.75;2.65;;;;;;;;;;5038120;28;20013;-67
2022/04/10 17:10:03;;;;;;;5.97;2.65;;;;;;;;;;5039619;28;20033;-66
2022/04/10 17:12:29;;;;;;;7.22;3.33;;;;;;;;;;5043949;28;20497;-62
2022/04/10 17:14:56;;;;;;;5.32;3.28;;;;;;;;;;5039257;28;20085;-62
2022/04/10 17:17:22;;;;;;;6.25;3.40;;;;;;;;;;5042185;28;20029;-63
2022/04/10 17:19:48;;;;;;;5.90;2.85;;;;;;;;;;5044672;28;20028;-62
2022/04/10 17:22:15;;;;;;;7.63;3.42;;;;;;;;;;5047510;28;20078;-63
2022/04/10 17:24:42;;;;;;;5.35;3.40;;;;;;;;;;5046613;28;20510;-63
2022/04/10 17:27:08;;;;;;;6.95;3.30;;;;;;;;;;5041000;28;20029;-64
2022/04/10 17:29:34;;;;;;;6.40;3.03;;;;;;;;;;5034481;28;20596;-61
2022/04/10 17:32:00;;;;;;;6.97;3.97;;;;;;;;;;5038766;28;20045;-62
2022/04/10 17:34:27;;;;;;;6.15;3.70;;;;;;;;;;5039196;28;20043;-62
2022/04/10 17:36:54;;;;;;;8.30;4.68;;;;;;;;;;5037552;28;20083;-62
2022/04/10 17:39:20;;;;;;;9.00;4.00;;;;;;;;;;5036215;28;20021;-66
2022/04/10 17:41:46;;;;;;;5.57;3.72;;;;;;;;;;5036820;28;20499;-64
2022/04/10 17:44:13;;;;;;;9.07;3.70;;;;;;;;;;5037102;28;20029;-63
2022/04/10 17:46:39;;;;;;;5.35;3.80;;;;;;;;;;5036354;28;20589;-63
2022/04/10 17:49:06;;;;;;;6.18;3.92;;;;;;;;;;5038364;28;20022;-63
2022/04/10 17:51:32;;;;;;;10.20;4.88;;;;;;;;;;5038212;28;20102;-63
2022/04/10 17:53:58;;;;;;;6.22;4.28;;;;;;;;;;5036943;28;20030;-64
2022/04/10 17:56:25;;;;;;;6.70;4.07;;;;;;;;;;5036574;28;20496;-63
2022/04/10 17:58:51;;;;;;;8.25;3.85;;;;;;;;;;5039915;28;20025;-63
2022/04/10 18:01:17;;;;;;;6.30;3.70;;;;;;;;;;5041508;28;20032;-63
2022/04/10 18:03:44;;;;;;;9.32;4.55;;;;;;;;;;5037700;28;20359;-62
2022/04/10 18:06:10;;;;;;;7.63;4.60;;;;;;;;;;5038617;28;20029;-62
2022/04/10 18:08:36;;;;;;;10.55;5.10;;;;;;;;;;5037828;28;20029;-67
2022/04/10 18:11:04;;;;;;;9.10;4.88;;;;;;;;;;5038223;28;20103;-61
2022/04/10 18:13:30;;;;;;;7.18;4.93;;;;;;;;;;5036832;28;20030;-61
2022/04/10 18:25:09;;;;;;;6.57;3.85;;;;;;;;;;5039240;28;20056;-62
2022/04/10 18:28:06;;;;;;;9.38;5.25;;;;;;;;;;5037357;28;20021;-61
2022/04/10 18:36:40;;;;;;;6.32;4.13;;;;;;;;;;5033094;28;20053;-62
2022/04/10 18:39:11;;;;;;;6.57;4.03;;;;;;;;;;5033896;28;20246;-62
2022/04/10 18:41:37;;;;;;;7.30;4.10;;;;;;;;;;5035134;28;20736;-64
2022/04/10 18:44:04;;;;;;;8.10;3.95;;;;;;;;;;5044832;28;20078;-67
2022/04/10 18:46:31;;;;;;;9.95;4.20;;;;;;;;;;5037349;28;20017;-62
2022/04/10 18:51:42;;;;;;;6.72;3.50;;;;;;;;;;5036385;28;20060;-62
2022/04/10 18:54:08;;;;;;;10.38;5.40;;;;;;;;;;5039500;28;20032;-61
2022/04/10 18:56:34;;;;;;;6.85;3.55;;;;;;;;;;5044139;28;20139;-66
2022/04/10 18:59:00;;;;;;;7.18;3.45;;;;;;;;;;5035670;28;20029;-63
2022/04/10 19:01:26;;;;;;;6.65;3.10;;;;;;;;;;5035675;28;20032;-62
2022/04/10 19:03:53;;;;;;;7.88;3.33;;;;;;;;;;5040306;28;20021;-65
2022/04/10 19:06:19;;;;;;;6.13;3.40;;;;;;;;;;5041191;28;20432;-63
2022/04/10 19:08:45;;;;;;;5.85;3.50;;;;;;;;;;5038100;28;20108;-63
2022/04/10 19:11:12;;;;;;;6.55;3.60;;;;;;;;;;5049757;28;20052;-63
2022/04/10 19:13:39;;;;;;;8.00;3.13;;;;;;;;;;5044829;28;20026;-67
2022/04/10 19:16:05;;;;;;;6.10;2.85;;;;;;;;;;5049911;28;20040;-67
2022/04/10 19:18:31;;;;;;;6.25;2.92;;;;;;;;;;5053154;28;20472;-62
2022/04/10 19:20:58;;;;;;;6.00;3.05;;;;;;;;;;5050202;28;20646;-62
2022/04/10 19:23:26;;;;;;;5.55;3.00;;;;;;;;;;5035459;28;20493;-62
2022/04/10 19:25:52;;;;;;;5.15;2.80;;;;;;;;;;5046028;28;20056;-62
2022/04/10 19:28:18;;;;;;;5.38;2.05;;;;;;;;;;5041806;28;20025;-64
2022/04/10 19:30:45;;;;;;;5.72;2.85;;;;;;;;;;5040385;28;20030;-65
2022/04/10 19:33:11;;;;;;;5.43;2.90;;;;;;;;;;5043299;28;20100;-63
2022/04/10 19:35:37;;;;;;;7.82;3.70;;;;;;;;;;5041546;28;20025;-64
2022/04/10 19:38:03;;;;;;;9.50;3.38;;;;;;;;;;5041324;28;20043;-63
2022/04/10 19:40:35;;;;;;;8.27;3.92;;;;;;;;;;5037678;28;20117;-62
2022/04/10 19:43:01;;;;;;;11.60;3.80;;;;;;;;;;5035247;28;20474;-61
2022/04/10 19:45:27;;;;;;;6.43;3.45;;;;;;;;;;5041574;28;20033;-61
2022/04/10 19:47:53;;;;;;;7.63;2.83;;;;;;;;;;5043577;28;20096;-61
2022/04/10 19:50:20;;;;;;;7.40;3.78;;;;;;;;;;5032766;28;20029;-61
2022/04/10 19:55:30;;;;;;;8.43;3.33;;;;;;;;;;5032190;28;20068;-60
2022/04/10 19:57:56;;;;;;;10.20;4.03;;;;;;;;;;5031938;28;20104;-61
2022/04/10 20:00:22;;;;;;;8.75;4.47;;;;;;;;;;5041265;28;20026;-67
2022/04/10 20:02:48;;;;;;;7.05;3.45;;;;;;;;;;5051891;28;20033;-70
2022/04/10 20:05:15;;;;;;;8.32;4.53;;;;;;;;;;5052163;28;20029;-67
2022/04/10 20:07:41;;;;;;;9.50;3.95;;;;;;;;;;5051876;28;20033;-68
2022/04/10 20:10:07;;;;;;;9.45;3.92;;;;;;;;;;5052188;28;20071;-65
2022/04/10 20:12:33;;;;;;;7.18;3.75;;;;;;;;;;5052194;28;20553;-68
2022/04/10 20:14:59;;;;;;;8.55;4.40;;;;;;;;;;5051700;28;20391;-68
2022/04/10 20:17:25;;;;;;;8.48;4.13;;;;;;;;;;5051988;28;20445;-67
2022/04/10 20:19:51;;;;;;;8.98;4.20;;;;;;;;;;5052123;28;20388;-70
2022/04/10 20:22:17;;;;;;;5.38;3.17;;;;;;;;;;5051905;28;20098;-67
2022/04/10 20:24:43;;;;;;;7.85;4.00;;;;;;;;;;5051722;28;20387;-68
2022/04/10 20:27:09;;;;;;;8.25;4.65;;;;;;;;;;5051619;28;20044;-69
2022/04/10 20:29:37;;;;;;;8.82;4.40;;;;;;;;;;5051904;28;20105;-67
2022/04/10 20:32:03;;;;;;;12.35;4.80;;;;;;;;;;5051742;28;20024;-68
2022/04/10 20:34:29;;;;;;;7.65;4.70;;;;;;;;;;5051732;28;20106;-67
2022/04/10 20:36:55;;;;;;;8.02;3.65;;;;;;;;;;5050333;28;20087;-68
2022/04/10 20:39:21;;;;;;;8.05;4.53;;;;;;;;;;5051525;28;20133;-70
2022/04/10 20:41:47;;;;;;;8.40;4.70;;;;;;;;;;5051818;28;20032;-67
2022/04/10 20:44:13;;;;;;;10.82;4.88;;;;;;;;;;5052226;28;20052;-67
2022/04/10 20:46:39;;;;;;;9.65;4.90;;;;;;;;;;5051703;28;20392;-67
2022/04/10 20:49:05;;;;;;;8.07;4.63;;;;;;;;;;5051659;28;20479;-67
2022/04/10 20:51:32;;;;;;;8.75;4.13;;;;;;;;;;5051395;28;20033;-67
2022/04/10 20:53:58;;;;;;;7.55;4.95;;;;;;;;;;5051753;28;20039;-67
2022/04/10 20:56:24;;;;;;;8.27;4.28;;;;;;;;;;5051466;28;20049;-68
2022/04/10 20:58:50;;;;;;;8.85;4.47;;;;;;;;;;5037741;28;20029;-66
2022/04/10 21:01:16;;;;;;;11.18;4.65;;;;;;;;;;5031241;28;20116;-71
2022/04/10 21:03:42;;;;;;;8.23;3.65;;;;;;;;;;5031722;28;20039;-67
2022/04/10 21:06:08;;;;;;;11.50;4.63;;;;;;;;;;5031177;28;20057;-67
2022/04/10 21:08:34;;;;;;;9.27;4.85;;;;;;;;;;5042662;28;20025;-67